Hauptseite
METAR-TAF:

METAR-TAF

Flughäfen :

NATO-Flugplatz Geilenkirchen

Geilenkirchen, Deutschland

Breite: 50-57-39N, Länge: 006-2-33E, Höhe: 90 m

Beobachtung

Neuester Wetterbericht von vor 8 Minuten, um 15:50 UTC
Wind 7 kt aus Nordost
Temperatur 28°C
Luftfeuchtigkeit 35%
Luftdruck 1023 hPa
Sichtweite 10 km oder mehr
keine Wolken unter 1500 m und keine Kumulonimbus oder Gewitterwolken

METAR: ETNG 231550Z 05007KT CAVOK 28/11 Q1023 NOSIG

Zeit: 17:58 (15:58 UTC)

Prognose

Neuester Wetterbericht von vor 1 Stunde und 58 Minuten, um 14:00 UTC
Gültige Prognose vom 23 um 15 UTC bis 24 um 06 UTC
Wind 8 kt aus Ost/Nordost
Sichtweite 10 km oder mehr
keine Wolken unter 1500 m und keine Kumulonimbus oder Gewitterwolken
Übergehend zu
vom 23 um 16 UTC bis 23 um 19 UTC
Wind 3 kt aus unterschiedlichen Richtungen

TAF: ETNG 231400Z 2315/2406 06008KT CAVOK BECMG 2316/2319 VRB03KT

Wetterbeobachtungen und Prognosen von mehr als 4000 Flughäfen (METAR und TAF Bericht).

Die verfügbaren Stationen werden durch gelbe und rote Markierungen auf der Karte dargestellt.

Führen Sie die Maus auf sie, um den Namen der Station zu sehen.

Darauf klicken, um die Beobachtung von Wetterbeobachtungen und Prognosen zu sehen.

Um die Karte zu ändern : klicken Sie auf den grünen Tasten mit einem schwarzen Kreuz Zum Vergrößern, auf den grünen Button mit einem Gedankenstrich zu verkleinern, oder auf die grünen Pfeile für benachbarte Karten.


METAR-TAF: